Time;durP1;ratioP1;P1;durP2;ratioP2;P2;SDS_P1;SDS_P2;PMS_P1;PMS_P2;Temp;Humidity;BMP_temperature;BMP_pressure;BME280_temperature;BME280_humidity;BME280_pressure;Samples;Min_cycle;Max_cycle;Signal;HPM_P1;HPM_P2
2021/11/22 00:02:14;;;;;;;11.35;8.85;;;10.50;67.70;;;;;;4992667;28;20022;-59
2021/11/22 00:04:40;;;;;;;11.20;9.15;;;10.50;67.90;;;;;;4977438;28;20082;-58
2021/11/22 00:07:06;;;;;;;12.93;9.30;;;10.50;67.80;;;;;;4977299;28;20024;-59
2021/11/22 00:09:33;;;;;;;13.85;9.38;;;10.50;67.70;;;;;;4976091;28;20045;-59
2021/11/22 00:11:59;;;;;;;13.73;10.25;;;10.50;67.70;;;;;;4977568;28;20431;-59
2021/11/22 00:14:25;;;;;;;13.70;9.55;;;10.50;67.70;;;;;;4977200;28;20031;-59
2021/11/22 00:16:51;;;;;;;15.63;9.77;;;10.50;67.60;;;;;;4977213;28;20035;-58
2021/11/22 00:19:17;;;;;;;11.50;9.85;;;10.50;67.50;;;;;;4977236;28;20530;-59
2021/11/22 00:21:42;;;;;;;11.95;9.50;;;10.50;67.60;;;;;;4977016;28;20027;-57
2021/11/22 00:24:08;;;;;;;13.18;9.85;;;10.50;67.40;;;;;;4977115;28;20074;-59
2021/11/22 00:26:34;;;;;;;14.23;10.80;;;10.50;67.40;;;;;;4977069;28;20050;-58
2021/11/22 00:29:00;;;;;;;12.50;9.75;;;10.50;67.70;;;;;;4976946;28;20073;-59
2021/11/22 00:31:26;;;;;;;15.00;10.30;;;10.40;67.40;;;;;;4983437;28;20105;-59
2021/11/22 00:33:53;;;;;;;13.55;9.88;;;10.40;67.50;;;;;;4995908;28;20030;-59
2021/11/22 00:36:19;;;;;;;12.98;9.05;;;10.40;67.40;;;;;;4990281;28;20031;-58
2021/11/22 00:38:45;;;;;;;14.43;10.30;;;10.40;68.10;;;;;;4976755;28;20109;-59
2021/11/22 00:41:10;;;;;;;11.52;8.93;;;10.40;67.40;;;;;;4976560;28;20490;-57
2021/11/22 00:43:36;;;;;;;12.55;9.70;;;10.40;67.30;;;;;;4976669;28;20033;-58
2021/11/22 00:46:02;;;;;;;15.40;9.27;;;10.40;67.50;;;;;;4976595;28;20023;-59
2021/11/22 00:48:28;;;;;;;15.25;9.25;;;10.40;67.60;;;;;;4976847;28;20023;-57
2021/11/22 00:50:55;;;;;;;11.02;8.57;;;10.40;67.50;;;;;;4976802;28;20102;-59
2021/11/22 00:53:21;;;;;;;11.25;8.82;;;10.30;67.40;;;;;;4984462;28;20047;-59
2021/11/22 00:55:47;;;;;;;12.63;9.30;;;10.30;67.50;;;;;;4995919;28;20022;-59
2021/11/22 00:58:13;;;;;;;11.75;9.15;;;10.30;67.50;;;;;;4995829;28;20466;-58
2021/11/22 01:00:40;;;;;;;10.98;8.95;;;10.30;67.60;;;;;;4995804;28;20026;-59
2021/11/22 01:03:05;;;;;;;10.75;8.07;;;10.30;67.70;;;;;;4996023;28;20505;-59
2021/11/22 01:05:32;;;;;;;12.15;8.27;;;10.30;67.50;;;;;;4995729;28;20026;-59
2021/11/22 01:07:57;;;;;;;11.57;9.35;;;10.30;67.40;;;;;;4995532;28;20027;-59
2021/11/22 01:10:23;;;;;;;11.57;8.98;;;10.30;67.50;;;;;;4995111;28;20044;-59
2021/11/22 01:12:50;;;;;;;10.35;8.18;;;10.30;67.50;;;;;;4995627;28;20034;-57
2021/11/22 01:15:19;;;;;;;11.52;8.70;;;10.30;67.30;;;;;;4995575;28;20025;-59
2021/11/22 01:17:47;;;;;;;11.50;9.38;;;10.30;67.50;;;;;;4995830;28;20053;-58
2021/11/22 01:20:16;;;;;;;11.60;9.63;;;10.30;67.40;;;;;;4995465;28;20041;-58
2021/11/22 01:22:42;;;;;;;15.63;10.23;;;10.30;67.50;;;;;;4995297;28;20466;-59
2021/11/22 01:25:10;;;;;;;11.70;9.70;;;10.30;67.30;;;;;;4995781;28;20459;-59
2021/11/22 01:27:35;;;;;;;13.13;10.30;;;10.30;67.40;;;;;;4981599;28;20515;-59
2021/11/22 01:30:05;;;;;;;12.43;9.45;;;10.40;67.50;;;;;;4975913;28;20085;-59
2021/11/22 01:32:31;;;;;;;13.02;9.98;;;10.40;67.40;;;;;;4991231;28;20026;-58
2021/11/22 01:34:56;;;;;;;11.55;9.60;;;10.30;67.20;;;;;;4995126;28;20045;-57
2021/11/22 01:37:22;;;;;;;12.55;8.90;;;10.30;67.20;;;;;;4995454;28;20053;-59
2021/11/22 01:39:48;;;;;;;14.63;10.60;;;10.30;67.50;;;;;;4994875;28;20054;-59
2021/11/22 01:42:14;;;;;;;13.93;11.13;;;10.30;67.30;;;;;;4995010;28;20022;-59
2021/11/22 01:44:39;;;;;;;15.45;11.25;;;10.30;67.50;;;;;;4983986;28;20027;-58
2021/11/22 01:47:05;;;;;;;12.68;10.27;;;10.30;67.60;;;;;;4975469;28;20034;-59
2021/11/22 01:49:31;;;;;;;13.20;10.38;;;10.30;67.60;;;;;;4975445;28;20391;-59
2021/11/22 01:51:56;;;;;;;11.68;9.73;;;10.20;67.50;;;;;;4975457;28;20027;-59
2021/11/22 01:54:22;;;;;;;12.82;10.30;;;10.30;67.80;;;;;;4975706;28;20089;-59
2021/11/22 01:56:48;;;;;;;13.77;10.68;;;10.30;67.90;;;;;;4975376;28;20085;-59
2021/11/22 01:59:17;;;;;;;12.73;10.88;;;10.30;67.90;;;;;;4975346;28;20026;-59
2021/11/22 02:01:45;;;;;;;13.18;10.88;;;10.30;67.90;;;;;;4983417;28;20184;-59
2021/11/22 02:04:13;;;;;;;13.95;10.10;;;10.30;67.90;;;;;;4994625;28;20018;-59
2021/11/22 02:06:39;;;;;;;13.90;10.25;;;10.40;68.00;;;;;;4994548;28;20031;-59
2021/11/22 02:09:06;;;;;;;14.30;10.20;;;10.40;67.90;;;;;;4994460;28;20054;-59
2021/11/22 02:11:33;;;;;;;11.95;9.60;;;10.40;67.90;;;;;;4994313;28;20034;-58
2021/11/22 02:13:59;;;;;;;13.70;10.13;;;10.50;67.90;;;;;;4994476;28;20434;-58
2021/11/22 02:16:25;;;;;;;13.52;10.18;;;10.50;67.90;;;;;;4994423;28;20109;-57
2021/11/22 02:18:51;;;;;;;12.32;10.77;;;10.60;68.00;;;;;;4987516;28;20116;-59
2021/11/22 02:21:16;;;;;;;12.38;9.95;;;10.50;68.00;;;;;;4975035;28;20035;-57
2021/11/22 02:23:45;;;;;;;12.57;10.07;;;10.60;68.00;;;;;;4974860;28;20542;-58
2021/11/22 02:26:11;;;;;;;13.77;10.93;;;10.60;68.10;;;;;;4974801;28;20026;-59
2021/11/22 02:28:37;;;;;;;11.65;9.63;;;10.60;68.00;;;;;;4974859;28;20034;-59
2021/11/22 02:31:03;;;;;;;12.95;10.38;;;10.70;68.10;;;;;;4992853;28;20019;-58
2021/11/22 02:33:28;;;;;;;12.00;9.43;;;10.70;68.20;;;;;;4993726;28;20033;-59
2021/11/22 02:35:59;;;;;;;11.18;9.27;;;10.70;68.10;;;;;;4994184;28;20054;-59
2021/11/22 02:38:33;;;;;;;12.32;9.25;;;10.70;68.10;;;;;;4994041;28;20018;-59
2021/11/22 02:41:01;;;;;;;12.82;10.05;;;10.80;68.10;;;;;;4993953;28;20502;-58
2021/11/22 02:43:29;;;;;;;11.48;8.77;;;10.80;68.20;;;;;;4993955;28;20026;-59
2021/11/22 02:45:55;;;;;;;10.85;8.65;;;10.80;68.10;;;;;;4993884;28;20068;-59
2021/11/22 02:48:21;;;;;;;13.57;9.82;;;10.80;67.90;;;;;;4993941;28;20113;-59
2021/11/22 02:50:47;;;;;;;12.85;9.75;;;10.80;68.00;;;;;;4979353;28;20487;-55
2021/11/22 02:53:13;;;;;;;14.00;10.50;;;10.80;68.20;;;;;;4974488;28;20069;-59
2021/11/22 02:55:38;;;;;;;12.93;10.27;;;10.90;68.20;;;;;;4973768;28;20121;-59
2021/11/22 02:58:04;;;;;;;13.40;9.93;;;10.90;68.20;;;;;;4973713;28;20534;-59
2021/11/22 03:00:33;;;;;;;14.95;10.15;;;10.90;68.10;;;;;;4972755;28;20557;-58
2021/11/22 03:02:59;;;;;;;11.73;8.98;;;10.90;68.00;;;;;;4974317;28;20033;-58
2021/11/22 03:05:25;;;;;;;12.23;9.20;;;10.90;68.10;;;;;;4974041;28;20105;-59
2021/11/22 03:07:53;;;;;;;11.88;9.73;;;10.90;67.90;;;;;;4974471;28;20030;-58
2021/11/22 03:10:21;;;;;;;11.70;9.43;;;10.90;68.00;;;;;;4973847;28;20027;-57
2021/11/22 03:12:48;;;;;;;13.10;10.05;;;10.90;68.00;;;;;;4989972;28;20026;-59
2021/11/22 03:15:16;;;;;;;12.60;9.40;;;10.90;68.00;;;;;;4992970;28;20106;-59
2021/11/22 03:17:43;;;;;;;11.43;9.27;;;10.90;68.00;;;;;;4992380;28;20478;-59
2021/11/22 03:20:12;;;;;;;12.63;10.30;;;10.90;68.00;;;;;;4993631;28;20048;-59
2021/11/22 03:22:38;;;;;;;12.85;10.05;;;10.90;68.00;;;;;;4992410;28;20042;-59
2021/11/22 03:25:06;;;;;;;13.80;10.27;;;10.80;68.00;;;;;;4993317;28;20030;-59
2021/11/22 03:27:33;;;;;;;11.63;9.20;;;10.80;68.00;;;;;;4993462;28;20073;-59
2021/11/22 03:29:59;;;;;;;11.82;10.38;;;10.80;68.00;;;;;;4993502;28;20027;-59
2021/11/22 03:32:24;;;;;;;14.40;11.73;;;10.70;68.10;;;;;;4992342;28;20026;-59
2021/11/22 03:34:50;;;;;;;16.50;11.57;;;10.60;68.00;;;;;;4993468;28;20033;-58
2021/11/22 03:37:16;;;;;;;18.38;14.13;;;10.60;68.10;;;;;;4993074;28;20418;-59
2021/11/22 03:39:46;;;;;;;17.27;14.43;;;10.50;68.20;;;;;;4993261;28;20410;-59
2021/11/22 03:42:16;;;;;;;20.73;15.55;;;10.40;68.10;;;;;;4993649;28;20034;-59
2021/11/22 03:44:43;;;;;;;18.63;13.82;;;10.40;68.30;;;;;;4993302;28;20026;-56
2021/11/22 03:47:09;;;;;;;18.70;14.07;;;10.30;68.30;;;;;;4993353;28;20018;-59
2021/11/22 03:49:35;;;;;;;17.50;14.20;;;10.30;68.40;;;;;;4993408;28;20022;-59
2021/11/22 03:52:04;;;;;;;17.63;13.07;;;10.20;68.50;;;;;;4992023;28;20034;-59
2021/11/22 03:54:30;;;;;;;19.45;13.48;;;10.20;68.60;;;;;;4992730;28;20036;-58
2021/11/22 03:56:56;;;;;;;14.43;12.23;;;10.20;68.70;;;;;;4993370;28;20034;-59
2021/11/22 03:59:22;;;;;;;15.48;10.68;;;10.20;68.70;;;;;;4993216;28;20030;-59
2021/11/22 04:01:47;;;;;;;17.27;11.70;;;10.20;68.80;;;;;;4993190;28;20430;-59
2021/11/22 04:04:13;;;;;;;15.60;11.43;;;10.20;68.80;;;;;;4993310;28;20034;-59
2021/11/22 04:06:39;;;;;;;17.52;11.38;;;10.20;68.90;;;;;;4993275;28;20038;-59
2021/11/22 04:09:05;;;;;;;15.55;12.20;;;10.30;69.10;;;;;;4996588;28;20026;-59
2021/11/22 04:11:32;;;;;;;14.07;10.82;;;10.20;69.20;;;;;;4996194;28;20476;-58
2021/11/22 04:13:58;;;;;;;14.18;11.07;;;10.30;69.10;;;;;;4996710;28;20026;-58
2021/11/22 04:16:24;;;;;;;15.13;11.05;;;10.30;69.10;;;;;;4996728;28;20037;-58
2021/11/22 04:18:50;;;;;;;13.75;9.82;;;10.30;69.00;;;;;;4996629;28;20026;-59
2021/11/22 04:21:19;;;;;;;13.18;9.80;;;10.30;69.00;;;;;;4996899;28;20042;-57
2021/11/22 04:23:45;;;;;;;12.82;11.45;;;10.20;69.00;;;;;;4996496;28;20033;-59
2021/11/22 04:26:12;;;;;;;14.40;11.82;;;10.20;68.90;;;;;;4996549;28;20031;-58
2021/11/22 04:28:39;;;;;;;16.80;12.75;;;10.10;68.90;;;;;;4995868;28;20097;-58
2021/11/22 04:31:05;;;;;;;15.50;11.43;;;10.10;68.90;;;;;;4996460;28;20422;-58
2021/11/22 04:33:31;;;;;;;14.88;11.02;;;10.00;69.00;;;;;;4996679;28;20033;-58
2021/11/22 04:35:58;;;;;;;15.57;12.30;;;10.00;69.10;;;;;;4996318;28;20034;-59
2021/11/22 04:38:23;;;;;;;16.52;14.07;;;9.90;69.10;;;;;;4996367;28;20505;-59
2021/11/22 04:40:49;;;;;;;15.48;12.45;;;9.90;69.40;;;;;;4996159;28;20055;-59
2021/11/22 04:43:15;;;;;;;17.15;11.80;;;9.90;69.30;;;;;;4996068;28;20089;-59
2021/11/22 04:45:41;;;;;;;15.88;13.20;;;9.80;69.40;;;;;;4980427;28;20027;-57
2021/11/22 04:48:07;;;;;;;16.80;13.18;;;9.70;69.50;;;;;;4976664;28;20023;-58
2021/11/22 04:50:34;;;;;;;19.20;13.80;;;9.70;69.50;;;;;;4976643;28;20474;-58
2021/11/22 04:53:01;;;;;;;17.95;12.90;;;9.70;69.70;;;;;;4976650;28;20035;-58
2021/11/22 04:55:27;;;;;;;14.93;11.20;;;9.60;69.70;;;;;;4976385;28;20035;-57
2021/11/22 04:57:54;;;;;;;18.45;13.63;;;9.60;69.70;;;;;;4976407;28;20019;-59
2021/11/22 05:00:23;;;;;;;15.45;11.98;;;9.60;70.00;;;;;;4987569;28;20434;-59
2021/11/22 05:02:49;;;;;;;18.02;11.93;;;9.50;70.00;;;;;;4995935;28;20030;-59
2021/11/22 05:05:16;;;;;;;15.23;11.88;;;9.50;70.20;;;;;;4995844;28;20030;-57
2021/11/22 05:07:43;;;;;;;18.42;11.43;;;9.40;70.40;;;;;;4995659;28;20018;-57
2021/11/22 05:10:10;;;;;;;16.80;11.95;;;9.40;70.60;;;;;;4995733;28;20027;-57
2021/11/22 05:12:36;;;;;;;14.63;11.75;;;9.30;70.80;;;;;;4995607;28;20497;-59
2021/11/22 05:15:04;;;;;;;17.73;13.77;;;9.30;70.80;;;;;;4989287;28;20043;-58
2021/11/22 05:17:30;;;;;;;18.33;14.35;;;9.30;70.90;;;;;;4976093;28;20026;-58
2021/11/22 05:19:56;;;;;;;20.23;13.55;;;9.30;71.00;;;;;;4975904;28;20106;-59
2021/11/22 05:22:24;;;;;;;20.27;15.48;;;9.20;71.00;;;;;;4976035;28;20059;-59
2021/11/22 05:24:50;;;;;;;21.50;16.17;;;9.20;71.00;;;;;;4976266;28;20046;-59
2021/11/22 05:27:22;;;;;;;19.80;15.02;;;9.20;71.00;;;;;;4975909;28;20023;-59
2021/11/22 05:29:49;;;;;;;19.08;14.95;;;9.20;71.00;;;;;;4977461;28;20543;-58
2021/11/22 05:32:16;;;;;;;19.05;15.13;;;9.20;71.10;;;;;;4995269;28;20026;-59
2021/11/22 05:34:47;;;;;;;19.75;15.13;;;9.10;71.00;;;;;;4995146;28;20027;-59
2021/11/22 05:37:13;;;;;;;20.33;16.25;;;9.20;71.20;;;;;;4995202;28;20018;-58
2021/11/22 05:39:39;;;;;;;20.85;16.88;;;9.10;71.10;;;;;;4994939;28;20097;-59
2021/11/22 05:42:05;;;;;;;21.80;16.35;;;9.10;71.10;;;;;;4995018;28;20470;-58
2021/11/22 05:44:33;;;;;;;22.08;17.05;;;9.10;71.20;;;;;;4995075;28;20022;-59
2021/11/22 05:46:59;;;;;;;23.52;17.38;;;9.10;71.20;;;;;;4995269;28;20370;-57
2021/11/22 05:49:26;;;;;;;22.35;16.58;;;9.10;71.10;;;;;;4994510;28;20077;-59
2021/11/22 05:51:52;;;;;;;20.77;17.52;;;9.00;71.10;;;;;;4994894;28;20080;-56
2021/11/22 05:54:19;;;;;;;21.23;16.45;;;9.00;71.10;;;;;;4994851;28;20034;-59
2021/11/22 05:56:45;;;;;;;22.65;16.42;;;9.00;71.10;;;;;;4995017;28;20479;-57
2021/11/22 05:59:11;;;;;;;22.35;16.63;;;9.00;71.10;;;;;;4995049;28;20050;-58
2021/11/22 06:01:37;;;;;;;19.48;15.30;;;9.00;71.30;;;;;;4994963;28;20026;-59
2021/11/22 06:04:03;;;;;;;20.00;15.50;;;9.00;71.30;;;;;;4994055;28;20045;-59
2021/11/22 06:06:29;;;;;;;18.83;14.85;;;9.00;71.20;;;;;;4994690;28;20023;-59
2021/11/22 06:08:54;;;;;;;20.98;15.98;;;9.00;71.20;;;;;;4994463;28;20541;-59
2021/11/22 06:11:20;;;;;;;18.27;13.82;;;9.00;71.20;;;;;;4988018;28;20561;-59
2021/11/22 06:13:46;;;;;;;20.00;15.05;;;9.00;71.20;;;;;;4986179;28;20026;-58
2021/11/22 06:16:11;;;;;;;17.58;13.68;;;9.10;71.40;;;;;;4992616;28;20085;-57
2021/11/22 06:18:37;;;;;;;19.23;14.45;;;9.10;71.30;;;;;;4978185;28;20309;-57
2021/11/22 06:21:03;;;;;;;21.65;13.20;;;9.20;71.30;;;;;;4986741;28;20035;-59
2021/11/22 06:23:29;;;;;;;20.88;14.40;;;9.20;71.30;;;;;;4992214;28;20065;-59
2021/11/22 06:25:55;;;;;;;17.15;12.32;;;9.30;71.30;;;;;;4985347;28;20419;-59
2021/11/22 06:28:20;;;;;;;15.02;12.13;;;9.30;71.30;;;;;;4991708;28;20050;-59
2021/11/22 06:30:47;;;;;;;16.75;12.20;;;9.30;71.40;;;;;;4983501;28;20042;-59
2021/11/22 06:33:13;;;;;;;16.95;11.63;;;9.30;71.30;;;;;;4988050;28;20442;-59
2021/11/22 06:35:39;;;;;;;16.98;12.15;;;9.40;71.40;;;;;;4990076;28;20027;-59
2021/11/22 06:38:05;;;;;;;16.27;12.05;;;9.40;71.40;;;;;;4984575;28;20026;-59
2021/11/22 06:40:32;;;;;;;17.40;13.00;;;9.40;71.40;;;;;;4987231;28;20062;-59
2021/11/22 06:42:57;;;;;;;17.95;12.82;;;9.40;71.40;;;;;;4986433;28;20498;-58
2021/11/22 06:45:23;;;;;;;21.17;14.50;;;9.50;71.40;;;;;;4982310;28;20026;-59
2021/11/22 06:47:50;;;;;;;18.73;12.82;;;9.50;71.40;;;;;;4984941;28;20026;-57
2021/11/22 06:50:17;;;;;;;17.65;12.68;;;9.50;71.40;;;;;;4986414;28;20026;-60
2021/11/22 06:52:44;;;;;;;16.33;11.73;;;9.60;71.30;;;;;;4987764;28;20110;-57
2021/11/22 06:55:10;;;;;;;17.38;14.13;;;9.60;71.20;;;;;;4982432;28;20026;-59
2021/11/22 06:57:36;;;;;;;15.82;12.95;;;9.60;71.10;;;;;;4984218;28;20030;-59
2021/11/22 07:00:05;;;;;;;19.15;14.45;;;9.70;71.20;;;;;;4988503;28;20534;-59
2021/11/22 07:02:31;;;;;;;17.30;12.80;;;9.70;71.30;;;;;;4986645;28;20062;-59
2021/11/22 07:04:57;;;;;;;17.67;13.05;;;9.70;71.30;;;;;;4984102;28;20054;-57
2021/11/22 07:07:25;;;;;;;19.67;13.43;;;9.80;71.30;;;;;;4980729;28;20057;-59
2021/11/22 07:09:51;;;;;;;18.60;14.52;;;9.90;71.40;;;;;;4980176;28;20034;-59
2021/11/22 07:12:17;;;;;;;16.83;13.05;;;9.90;71.30;;;;;;4980590;28;20049;-59
2021/11/22 07:14:43;;;;;;;23.60;14.52;;;10.00;71.40;;;;;;4984399;28;20031;-59
2021/11/22 07:17:10;;;;;;;18.58;13.32;;;10.10;71.40;;;;;;4983134;28;20046;-59
2021/11/22 07:19:35;;;;;;;17.67;13.38;;;10.30;71.20;;;;;;4981428;28;20027;-59
2021/11/22 07:22:06;;;;;;;18.95;14.52;;;10.40;71.00;;;;;;4982505;28;20037;-59
2021/11/22 07:24:33;;;;;;;19.13;14.20;;;10.50;70.80;;;;;;4985043;28;20486;-59
2021/11/22 07:26:58;;;;;;;18.77;15.57;;;10.60;70.70;;;;;;4982669;28;20022;-59
2021/11/22 07:29:24;;;;;;;21.65;16.48;;;10.70;70.60;;;;;;4981667;28;20030;-59
2021/11/22 07:31:50;;;;;;;19.52;15.93;;;10.80;70.40;;;;;;4974601;28;20035;-58
2021/11/22 07:34:16;;;;;;;21.08;17.17;;;10.90;70.30;;;;;;4977963;28;20486;-60
2021/11/22 07:36:42;;;;;;;21.90;16.63;;;11.00;70.20;;;;;;4976788;28;20065;-59
2021/11/22 07:39:08;;;;;;;26.65;18.85;;;11.00;70.00;;;;;;4978859;28;20072;-59
2021/11/22 07:41:33;;;;;;;21.65;17.20;;;11.10;69.80;;;;;;4975211;28;20637;-59
2021/11/22 07:43:59;;;;;;;21.90;16.77;;;11.20;69.90;;;;;;4978581;28;20039;-59
2021/11/22 07:46:26;;;;;;;23.92;16.48;;;11.20;69.70;;;;;;4980195;28;20113;-58
2021/11/22 07:48:53;;;;;;;18.38;14.45;;;11.30;69.40;;;;;;4982469;28;20034;-60
2021/11/22 07:51:19;;;;;;;18.95;14.60;;;11.30;69.30;;;;;;4974932;28;20038;-59
2021/11/22 07:53:45;;;;;;;18.67;13.63;;;11.30;69.40;;;;;;4976208;28;20561;-60
2021/11/22 07:56:12;;;;;;;21.52;15.50;;;11.30;69.20;;;;;;4975189;28;20034;-58
2021/11/22 07:58:38;;;;;;;17.65;13.50;;;11.30;69.80;;;;;;4981358;28;20049;-60
2021/11/22 08:01:04;;;;;;;18.95;13.85;;;11.30;69.20;;;;;;4979367;28;20497;-60
2021/11/22 08:03:30;;;;;;;17.67;13.55;;;11.40;69.20;;;;;;4982174;28;20390;-59
2021/11/22 08:05:57;;;;;;;18.65;13.23;;;11.30;69.20;;;;;;4981901;28;20019;-59
2021/11/22 08:08:26;;;;;;;18.23;13.30;;;11.40;69.40;;;;;;4983683;28;20026;-60
2021/11/22 08:13:38;;;;;;;16.63;12.73;;;11.40;69.40;;;;;;4978509;28;20056;-60
2021/11/22 08:16:09;;;;;;;15.75;10.48;;;11.40;69.50;;;;;;4987012;28;20089;-61
2021/11/22 08:18:38;;;;;;;12.77;9.02;;;11.40;69.50;;;;;;4975615;28;20893;-61
2021/11/22 08:21:05;;;;;;;9.77;8.07;;;11.40;69.70;;;;;;4977856;28;20089;-61
2021/11/22 08:23:31;;;;;;;11.25;8.32;;;11.40;69.50;;;;;;4982169;28;20663;-60
2021/11/22 08:25:56;;;;;;;11.35;8.20;;;11.40;69.50;;;;;;4978987;28;20035;-60
2021/11/22 08:28:23;;;;;;;10.25;7.68;;;11.40;69.40;;;;;;4973466;28;20102;-61
2021/11/22 08:30:50;;;;;;;11.23;8.45;;;11.40;69.40;;;;;;4977591;28;20463;-59
2021/11/22 08:33:17;;;;;;;12.00;8.30;;;11.40;69.30;;;;;;4983366;28;20030;-60
2021/11/22 08:35:46;;;;;;;11.02;8.35;;;11.40;69.20;;;;;;4985319;28;20053;-59
2021/11/22 08:38:13;;;;;;;10.20;7.68;;;11.40;69.30;;;;;;4976969;28;20094;-62
2021/11/22 08:40:41;;;;;;;10.88;8.05;;;11.40;69.30;;;;;;4971593;28;20050;-60
2021/11/22 08:43:09;;;;;;;13.82;8.85;;;11.40;69.50;;;;;;4984472;28;20130;-61
2021/11/22 08:45:36;;;;;;;12.98;8.95;;;11.40;69.70;;;;;;4979513;28;20026;-60
2021/11/22 08:48:02;;;;;;;10.75;8.52;;;11.40;69.80;;;;;;4986313;28;20029;-61
2021/11/22 08:50:28;;;;;;;12.45;8.90;;;11.30;69.80;;;;;;4977852;28;20034;-61
2021/11/22 08:52:54;;;;;;;11.98;9.13;;;11.30;69.90;;;;;;4975075;28;20393;-58
2021/11/22 08:55:20;;;;;;;13.18;9.98;;;11.30;70.00;;;;;;4976838;28;20034;-61
2021/11/22 08:57:48;;;;;;;13.35;9.95;;;11.30;70.00;;;;;;4981724;28;20026;-62
2021/11/22 09:00:20;;;;;;;13.38;9.98;;;11.30;70.00;;;;;;4979060;28;20057;-60
2021/11/22 09:02:46;;;;;;;11.88;9.40;;;11.40;70.20;;;;;;4978439;28;21671;-59
2021/11/22 09:05:12;;;;;;;14.35;10.48;;;11.40;70.10;;;;;;4978690;28;20042;-60
2021/11/22 09:07:38;;;;;;;13.40;10.10;;;11.40;70.20;;;;;;4979772;28;20030;-59
2021/11/22 09:10:05;;;;;;;11.68;9.05;;;11.40;70.40;;;;;;4980697;28;20037;-60
2021/11/22 09:12:31;;;;;;;11.77;9.00;;;11.40;70.60;;;;;;4975666;28;20057;-60
2021/11/22 09:14:58;;;;;;;10.73;8.68;;;11.40;70.60;;;;;;4973952;28;20034;-59
2021/11/22 09:17:24;;;;;;;10.77;8.38;;;11.40;70.80;;;;;;4975684;28;20725;-59
2021/11/22 09:19:49;;;;;;;11.52;8.18;;;11.30;70.70;;;;;;4976397;28;20049;-59
2021/11/22 09:22:15;;;;;;;11.23;8.57;;;11.40;70.90;;;;;;4979154;28;20053;-61
2021/11/22 09:24:42;;;;;;;11.00;8.27;;;11.40;70.90;;;;;;4977782;28;20026;-60
2021/11/22 09:27:08;;;;;;;10.93;8.35;;;11.40;70.90;;;;;;4974545;28;20034;-57
2021/11/22 09:29:34;;;;;;;10.57;8.13;;;11.40;70.90;;;;;;4977415;28;20026;-60
2021/11/22 09:32:00;;;;;;;10.57;8.25;;;11.40;70.90;;;;;;4976725;28;20041;-58
2021/11/22 09:34:26;;;;;;;11.48;8.45;;;11.40;71.00;;;;;;4973337;28;20031;-59
2021/11/22 09:36:52;;;;;;;11.10;8.43;;;11.40;71.10;;;;;;4976350;28;20022;-59
2021/11/22 09:39:19;;;;;;;10.73;8.45;;;11.40;71.10;;;;;;4978570;28;20046;-59
2021/11/22 09:41:48;;;;;;;10.52;8.13;;;11.40;71.10;;;;;;4980660;28;20065;-59
2021/11/22 09:44:14;;;;;;;11.57;9.43;;;11.40;71.00;;;;;;4978280;28;20058;-60
2021/11/22 09:46:40;;;;;;;10.88;8.65;;;11.40;71.00;;;;;;4976049;28;20031;-60
2021/11/22 09:49:07;;;;;;;10.95;8.55;;;11.50;71.40;;;;;;4978670;28;20031;-60
2021/11/22 09:51:33;;;;;;;12.80;8.80;;;11.50;71.00;;;;;;4973718;28;20035;-59
2021/11/22 09:53:59;;;;;;;12.13;9.07;;;11.50;71.10;;;;;;4981230;28;20022;-59
2021/11/22 09:56:25;;;;;;;11.25;8.15;;;11.50;71.20;;;;;;4979768;28;20548;-60
2021/11/22 09:58:52;;;;;;;10.80;8.00;;;11.50;71.10;;;;;;4975788;28;20065;-60
2021/11/22 10:01:19;;;;;;;10.07;7.78;;;11.40;71.20;;;;;;4966906;28;20120;-61
2021/11/22 10:03:59;;;;;;;11.27;7.82;;;11.40;71.30;;;;;;4978060;28;20030;-57
2021/11/22 10:06:25;;;;;;;9.48;7.22;;;11.40;71.60;;;;;;4975919;28;20040;-60
2021/11/22 10:08:51;;;;;;;8.65;6.90;;;11.30;71.40;;;;;;4976353;28;20037;-59
2021/11/22 10:11:17;;;;;;;9.95;6.88;;;11.40;71.60;;;;;;4975287;28;20494;-60
2021/11/22 10:13:48;;;;;;;7.95;6.35;;;11.30;71.60;;;;;;4977536;28;20030;-59
2021/11/22 10:16:16;;;;;;;8.98;6.57;;;11.40;71.60;;;;;;4975447;28;20504;-60
2021/11/22 10:18:48;;;;;;;8.20;6.20;;;11.40;71.40;;;;;;4971860;28;20078;-59
2021/11/22 10:21:23;;;;;;;7.50;5.93;;;11.40;71.30;;;;;;4973508;28;20541;-60
2021/11/22 10:23:51;;;;;;;8.38;6.20;;;11.40;71.30;;;;;;4968819;28;20030;-60
2021/11/22 10:26:17;;;;;;;8.75;6.60;;;11.40;71.20;;;;;;4971301;28;20042;-58
2021/11/22 10:28:53;;;;;;;7.15;5.70;;;11.40;71.10;;;;;;4979141;28;20686;-59
2021/11/22 10:31:25;;;;;;;6.93;5.68;;;11.40;71.00;;;;;;4974312;28;20033;-59
2021/11/22 10:33:53;;;;;;;6.90;5.50;;;11.40;71.10;;;;;;4977877;28;20042;-59
2021/11/22 10:36:25;;;;;;;7.68;6.20;;;11.30;70.90;;;;;;4977720;28;20039;-60
2021/11/22 10:38:54;;;;;;;7.60;6.18;;;11.30;71.00;;;;;;4970283;28;20061;-58
2021/11/22 10:41:25;;;;;;;8.27;6.38;;;11.30;71.00;;;;;;4979932;28;20038;-59
2021/11/22 10:43:55;;;;;;;;;;;11.30;71.00;;;;;;4976450;28;20030;-59
2021/11/22 10:46:51;;;;;;;6.57;5.38;;;11.20;71.00;;;;;;4976387;28;19910;-59
2021/11/22 10:49:27;;;;;;;7.75;5.50;;;11.20;71.00;;;;;;4977932;28;20432;-59
2021/11/22 10:52:06;;;;;;;8.43;6.47;;;11.20;71.20;;;;;;4980590;28;20027;-58
2021/11/22 10:54:36;;;;;;;7.25;5.60;;;11.20;71.20;;;;;;4980415;28;20487;-58
2021/11/22 10:57:11;;;;;;;9.10;6.00;;;11.20;71.30;;;;;;4978400;28;20080;-59
2021/11/22 10:59:37;;;;;;;6.55;5.30;;;11.30;71.30;;;;;;4976357;28;20033;-58
2021/11/22 11:02:03;;;;;;;6.40;4.90;;;11.30;71.20;;;;;;4977422;28;20026;-58
2021/11/22 11:04:37;;;;;;;7.03;4.80;;;11.40;71.00;;;;;;4983335;28;20022;-59
2021/11/22 11:07:08;;;;;;;5.45;4.50;;;11.40;70.90;;;;;;4983110;28;20662;-59
2021/11/22 11:09:38;;;;;;;5.60;4.45;;;11.50;70.70;;;;;;4978202;28;20027;-58
2021/11/22 11:12:14;;;;;;;5.05;4.03;;;11.60;70.40;;;;;;4976052;28;20054;-58
2021/11/22 11:14:45;;;;;;;4.00;3.28;;;11.60;70.00;;;;;;4983514;28;20031;-59
2021/11/22 11:17:36;;;;;;;4.13;3.10;;;11.60;69.60;;;;;;4981687;28;20022;-58
2021/11/22 11:20:10;;;;;;;3.58;3.20;;;11.60;69.30;;;;;;4980796;28;20050;-59
2021/11/22 11:22:36;;;;;;;4.40;3.13;;;11.60;69.50;;;;;;4977156;28;20034;-59
2021/11/22 11:25:04;;;;;;;4.10;2.92;;;11.60;69.80;;;;;;4972361;28;20034;-57
2021/11/22 11:27:31;;;;;;;3.10;2.80;;;11.60;69.70;;;;;;4973310;28;20033;-59
2021/11/22 11:29:57;;;;;;;3.75;3.10;;;11.60;69.90;;;;;;4969672;28;20530;-58
2021/11/22 11:32:24;;;;;;;5.22;2.97;;;11.50;70.00;;;;;;4972812;28;20109;-59
2021/11/22 11:34:54;;;;;;;3.17;2.88;;;11.50;70.00;;;;;;4974319;28;20553;-57
2021/11/22 11:37:30;;;;;;;3.30;3.00;;;11.50;70.20;;;;;;4970982;28;20061;-59
2021/11/22 11:40:21;;;;;;;3.75;2.97;;;11.50;70.90;;;;;;4977027;28;20342;-59
2021/11/22 11:43:14;;;;;;;3.63;3.05;;;11.60;70.30;;;;;;4976174;28;20061;-59
2021/11/22 11:45:46;;;;;;;3.00;2.63;;;11.60;70.20;;;;;;4977236;28;20117;-57
2021/11/22 11:48:46;;;;;;;2.95;2.47;;;11.60;70.20;;;;;;4980633;28;20030;-58
2021/11/22 11:51:19;;;;;;;4.38;2.90;;;11.60;70.10;;;;;;4973033;28;20031;-58
2021/11/22 11:54:05;;;;;;;3.92;2.60;;;11.60;69.90;;;;;;4974439;28;20112;-58
2021/11/22 11:56:35;;;;;;;2.67;2.47;;;11.70;69.90;;;;;;4977689;28;20097;-59
2021/11/22 11:59:25;;;;;;;3.45;2.80;;;11.60;69.70;;;;;;4970920;28;20518;-59
2021/11/22 12:01:57;;;;;;;2.40;2.20;;;11.60;69.30;;;;;;4971206;28;20038;-57
2021/11/22 12:04:23;;;;;;;3.65;2.78;;;11.60;69.30;;;;;;4978005;28;20109;-59
2021/11/22 12:06:55;;;;;;;3.00;2.70;;;11.60;69.40;;;;;;4974157;28;20424;-59
2021/11/22 12:09:43;;;;;;;3.70;2.55;;;11.70;69.50;;;;;;4975547;28;20494;-58
2021/11/22 12:12:08;;;;;;;3.60;2.35;;;11.70;69.30;;;;;;4974313;28;20041;-59
2021/11/22 12:14:49;;;;;;;4.30;2.72;;;11.70;69.30;;;;;;4974001;28;20034;-58
2021/11/22 12:17:33;;;;;;;4.38;2.90;;;11.70;69.30;;;;;;4980811;28;20038;-59
2021/11/22 12:20:07;;;;;;;3.33;2.55;;;11.60;69.00;;;;;;4975868;28;20046;-59
2021/11/22 12:22:45;;;;;;;3.30;2.70;;;11.60;69.30;;;;;;4976448;28;20035;-60
2021/11/22 12:25:43;;;;;;;2.80;2.55;;;11.60;69.20;;;;;;4974837;28;20049;-58
2021/11/22 12:28:35;;;;;;;3.22;2.45;;;11.60;69.10;;;;;;4972323;28;20046;-59
2021/11/22 12:31:11;;;;;;;3.20;2.50;;;11.50;69.10;;;;;;4975598;28;20074;-58
2021/11/22 12:33:45;;;;;;;2.67;2.40;;;11.50;69.20;;;;;;4974056;28;20030;-59
2021/11/22 12:36:10;;;;;;;3.35;2.33;;;11.50;69.10;;;;;;4975483;28;20038;-59
2021/11/22 12:38:46;;;;;;;2.58;2.30;;;11.40;69.20;;;;;;4975882;28;20763;-58
2021/11/22 12:41:24;;;;;;;2.72;2.30;;;11.40;69.00;;;;;;4976602;28;20058;-58
2021/11/22 12:43:57;;;;;;;3.45;2.33;;;11.40;68.90;;;;;;4976208;28;20030;-58